-2°C Temp
-5°C Dewpoint
80% Humidity
Temperature
10 KM/H
6 MPH
5 KTS
20°
North North
East

Wind Speed
Clear
Conditions
Pressure 1043.92 (hPa) - 30.83 (in)
Visibility 6.2 (mi) - 10.0 (km)

Current Conditions
LIMC
Location Malpensa 50(km)
Metar :LIMC 202050Z 02005KT CAVOK M02/M05 Q1044 NOSIG
Mon 20th January 21:50 pm

Airport
  Metar Aviation API Data Provided by https://www.checkwx.com/ PHP scripts by weather34.com ©2020